createdAt,value
2019-03-19T00:00:23.945Z,-0.6
2019-03-19T00:01:14.816Z,-0.7
2019-03-19T00:02:05.683Z,-0.7
2019-03-19T00:02:56.555Z,-0.8
2019-03-19T00:03:47.427Z,-0.7
2019-03-19T00:04:38.301Z,-0.8
2019-03-19T00:05:29.202Z,-0.8
2019-03-19T00:06:20.074Z,-0.8
2019-03-19T00:07:10.948Z,-0.8
2019-03-19T00:08:01.825Z,-0.8
2019-03-19T00:08:52.698Z,-0.8
2019-03-19T00:09:43.573Z,-0.8
2019-03-19T00:10:34.514Z,-0.8
2019-03-19T00:11:25.386Z,-0.8
2019-03-19T00:12:16.251Z,-0.9
2019-03-19T00:13:07.124Z,-0.9
2019-03-19T00:13:57.997Z,-0.8
2019-03-19T00:14:48.871Z,-0.9
2019-03-19T00:15:39.773Z,-0.9
2019-03-19T00:16:30.643Z,-0.9
2019-03-19T00:17:21.517Z,-0.9
2019-03-19T00:18:12.389Z,-0.9
2019-03-19T00:19:03.257Z,-0.9
2019-03-19T00:19:54.131Z,-0.8
2019-03-19T00:20:45.026Z,-0.8
2019-03-19T00:21:35.894Z,-0.9
2019-03-19T00:22:26.768Z,-1.1
2019-03-19T00:23:17.639Z,-1.2
2019-03-19T00:24:08.510Z,-1.2
2019-03-19T00:24:59.376Z,-1.3
2019-03-19T00:25:50.276Z,-1.3
2019-03-19T00:26:41.157Z,-1.3
2019-03-19T00:27:32.031Z,-1.3
2019-03-19T00:28:22.905Z,-1.3
2019-03-19T00:29:13.780Z,-1.1
2019-03-19T00:30:04.659Z,-1
2019-03-19T00:30:55.554Z,-1
2019-03-19T00:31:46.430Z,-0.9
2019-03-19T00:32:37.303Z,-1
2019-03-19T00:33:28.176Z,-1.2
2019-03-19T00:34:19.043Z,-1.1
2019-03-19T00:35:09.910Z,-1.3
2019-03-19T00:36:00.816Z,-1.3
2019-03-19T00:36:51.688Z,-1.3
2019-03-19T00:37:42.568Z,-1.4
2019-03-19T00:38:33.443Z,-1.4
2019-03-19T00:39:24.315Z,-1.3
2019-03-19T00:40:15.185Z,-1.4
2019-03-19T00:41:06.084Z,-1.4
2019-03-19T00:41:56.953Z,-1.4
2019-03-19T00:42:47.826Z,-1.4
2019-03-19T00:43:38.699Z,-1.4
2019-03-19T00:44:29.575Z,-1.5
2019-03-19T00:45:20.446Z,-1.6
2019-03-19T00:46:11.350Z,-1.6
2019-03-19T00:47:02.222Z,-1.4
2019-03-19T00:47:53.104Z,-1.4
2019-03-19T00:48:43.975Z,-1.4
2019-03-19T00:49:34.846Z,-1.5
2019-03-19T00:50:25.718Z,-1.6
2019-03-19T00:51:16.614Z,-1.6
2019-03-19T00:52:07.483Z,-1.7
2019-03-19T00:52:58.355Z,-1.6
2019-03-19T00:53:49.220Z,-1.6
2019-03-19T00:54:40.091Z,-1.5
2019-03-19T00:55:40.124Z,-1.4
2019-03-19T00:56:26.796Z,-1.3
2019-03-19T00:57:17.665Z,-1.3
2019-03-19T00:58:08.538Z,-1.3
2019-03-19T00:58:59.406Z,-1.3
2019-03-19T00:59:50.278Z,-1.3
2019-03-19T01:00:41.148Z,-1.3
2019-03-19T01:01:32.048Z,-1.2
2019-03-19T01:02:22.922Z,-0.9
2019-03-19T01:03:13.794Z,-0.8
2019-03-19T01:04:04.667Z,-0.9
2019-03-19T01:04:55.540Z,-0.9
2019-03-19T01:05:46.412Z,-0.9
2019-03-19T01:06:37.315Z,-0.9
2019-03-19T01:07:28.188Z,-0.8
2019-03-19T01:08:19.062Z,-0.8
2019-03-19T01:09:09.936Z,-0.8
2019-03-19T01:10:00.807Z,-0.8
2019-03-19T01:10:51.681Z,-0.8
2019-03-19T01:11:42.581Z,-0.7
2019-03-19T01:12:33.448Z,-0.6
2019-03-19T01:13:24.324Z,-0.6
2019-03-19T01:14:15.196Z,-0.6
2019-03-19T01:15:06.068Z,-0.6
2019-03-19T01:15:56.941Z,-0.6
2019-03-19T01:16:47.890Z,-0.6
2019-03-19T01:17:38.759Z,-0.6
2019-03-19T01:18:29.630Z,-0.6
2019-03-19T01:19:20.500Z,-0.6
2019-03-19T01:20:11.369Z,-0.6
2019-03-19T01:21:02.240Z,-0.7
2019-03-19T01:21:53.142Z,-0.7
2019-03-19T01:22:44.011Z,-0.7
2019-03-19T01:23:34.890Z,-0.6
2019-03-19T01:24:25.762Z,-0.7
2019-03-19T01:25:16.642Z,-0.8
2019-03-19T01:26:07.574Z,-0.8
2019-03-19T01:26:58.474Z,-0.7
2019-03-19T01:27:49.343Z,-0.6
2019-03-19T01:28:40.218Z,-0.6
2019-03-19T01:29:31.092Z,-0.6
2019-03-19T01:30:21.970Z,-0.6
2019-03-19T01:31:12.835Z,-0.6
2019-03-19T01:32:03.745Z,-0.7
2019-03-19T01:32:54.614Z,-0.8
2019-03-19T01:33:45.488Z,-0.8
2019-03-19T01:34:36.363Z,-0.8
2019-03-19T01:35:27.235Z,-0.9
2019-03-19T01:36:18.109Z,-0.9
2019-03-19T01:37:08.979Z,-1
2019-03-19T01:37:59.878Z,-1
2019-03-19T01:38:50.751Z,-1
2019-03-19T01:39:41.618Z,-1
2019-03-19T01:40:32.493Z,-1
2019-03-19T01:41:23.364Z,-0.9
2019-03-19T01:42:14.240Z,-0.9
2019-03-19T01:43:05.145Z,-0.9
2019-03-19T01:43:56.023Z,-1
2019-03-19T01:44:46.892Z,-0.9
2019-03-19T01:45:37.761Z,-0.9
2019-03-19T01:46:28.627Z,-0.9
2019-03-19T01:47:19.497Z,-0.9
2019-03-19T01:48:10.396Z,-0.9
2019-03-19T01:49:01.266Z,-0.8
2019-03-19T01:49:52.139Z,-0.7
2019-03-19T01:50:43.013Z,-0.7
2019-03-19T01:51:33.880Z,-0.6
2019-03-19T01:52:24.756Z,-0.5
2019-03-19T01:53:15.655Z,-0.4
2019-03-19T01:54:06.523Z,-0.3
2019-03-19T01:54:57.398Z,-0.2
2019-03-19T01:55:48.270Z,-0.1
2019-03-19T01:56:39.138Z,0
2019-03-19T01:57:30.008Z,0.1
2019-03-19T01:58:20.965Z,0
2019-03-19T01:59:11.838Z,0
2019-03-19T02:00:02.711Z,0.1
2019-03-19T02:00:53.584Z,0
2019-03-19T02:01:44.453Z,-0.1
2019-03-19T02:02:35.318Z,0
2019-03-19T02:03:26.215Z,-0.1
2019-03-19T02:04:17.082Z,0
2019-03-19T02:05:07.957Z,-0.1
2019-03-19T02:05:58.826Z,-0.1
2019-03-19T02:06:49.694Z,-0.2
2019-03-19T02:07:40.564Z,-0.3
2019-03-19T02:08:31.457Z,-0.4
2019-03-19T02:09:22.326Z,-0.3
2019-03-19T02:10:13.198Z,-0.4
2019-03-19T02:11:04.066Z,-0.3
2019-03-19T02:11:54.954Z,-0.3
2019-03-19T02:12:45.835Z,-0.3
2019-03-19T02:13:36.745Z,-0.3
2019-03-19T02:14:27.610Z,-0.3
2019-03-19T02:15:18.482Z,-0.4
2019-03-19T02:16:09.359Z,-0.3
2019-03-19T02:17:00.233Z,-0.4
2019-03-19T02:17:51.119Z,-0.3
2019-03-19T02:18:42.023Z,-0.4
2019-03-19T02:19:32.894Z,-0.4
2019-03-19T02:20:23.771Z,-0.5
2019-03-19T02:21:14.643Z,-0.4
2019-03-19T02:22:05.515Z,-0.3
2019-03-19T02:22:56.394Z,-0.4
2019-03-19T02:23:47.288Z,-0.5
2019-03-19T02:24:38.156Z,-0.6
2019-03-19T02:25:29.023Z,-0.7
2019-03-19T02:26:19.898Z,-0.8
2019-03-19T02:27:10.771Z,-0.6
2019-03-19T02:28:01.641Z,-0.6
2019-03-19T02:28:52.539Z,-0.5
2019-03-19T02:29:43.414Z,-0.6
2019-03-19T02:30:34.288Z,-0.6
2019-03-19T02:31:25.172Z,-0.6
2019-03-19T02:32:16.087Z,-0.6
2019-03-19T02:33:06.972Z,-0.5
2019-03-19T02:33:57.910Z,-0.6
2019-03-19T02:34:48.782Z,-0.6
2019-03-19T02:35:39.657Z,-0.7
2019-03-19T02:36:30.535Z,-0.6
2019-03-19T02:37:21.407Z,-0.6
2019-03-19T02:38:12.276Z,-0.6
2019-03-19T02:39:03.183Z,-0.5
2019-03-19T02:39:54.061Z,-0.4
2019-03-19T02:40:44.935Z,-0.4
2019-03-19T02:41:35.813Z,-0.4
2019-03-19T02:42:26.682Z,-0.3
2019-03-19T02:43:17.552Z,-0.3
2019-03-19T02:44:08.472Z,-0.3
2019-03-19T02:44:59.364Z,-0.2
2019-03-19T02:45:50.237Z,-0.2
2019-03-19T02:46:41.112Z,-0.3
2019-03-19T02:47:31.992Z,-0.3
2019-03-19T02:48:22.868Z,-0.3
2019-03-19T02:49:13.770Z,-0.3
2019-03-19T02:50:04.642Z,-0.3
2019-03-19T02:50:55.517Z,-0.3
2019-03-19T02:51:46.403Z,-0.3
2019-03-19T02:52:37.274Z,-0.2
2019-03-19T02:53:29.551Z,-0.2
2019-03-19T02:54:20.663Z,-0.2
2019-03-19T02:55:11.537Z,-0.3
2019-03-19T02:56:02.413Z,-0.2
2019-03-19T02:56:53.286Z,-0.1
2019-03-19T02:57:44.176Z,-0.1
2019-03-19T02:58:35.062Z,-0.1
2019-03-19T02:59:25.970Z,-0.1
2019-03-19T03:00:16.840Z,-0.1
2019-03-19T03:01:07.719Z,-0.3
2019-03-19T03:01:58.591Z,-0.2
2019-03-19T03:02:49.470Z,-0.2
2019-03-19T03:03:40.345Z,-0.2
2019-03-19T03:04:31.236Z,-0.1
2019-03-19T03:05:22.113Z,-0.1
2019-03-19T03:06:12.997Z,0
2019-03-19T03:07:03.876Z,-0.1
2019-03-19T03:07:54.853Z,-0.1
2019-03-19T03:08:50.734Z,-0.1
2019-03-19T03:09:41.632Z,-0.1
2019-03-19T03:10:32.506Z,-0.1
2019-03-19T03:11:23.377Z,-0.1
2019-03-19T03:12:14.250Z,-0.1
2019-03-19T03:13:05.118Z,-0.2
2019-03-19T03:13:55.990Z,-0.3
2019-03-19T03:14:46.898Z,-0.3
2019-03-19T03:15:37.801Z,-0.3
2019-03-19T03:16:28.673Z,-0.4
2019-03-19T03:17:19.552Z,-0.3
2019-03-19T03:18:10.425Z,-0.4
2019-03-19T03:19:01.297Z,-0.4
2019-03-19T03:19:52.202Z,-0.3
2019-03-19T03:20:43.082Z,-0.3
2019-03-19T03:21:34.728Z,-0.4
2019-03-19T03:22:25.781Z,-0.4
2019-03-19T03:23:16.663Z,-0.5
2019-03-19T03:24:07.530Z,-0.4
2019-03-19T03:24:58.428Z,-0.5
2019-03-19T03:25:49.298Z,-0.6
2019-03-19T03:26:47.253Z,-0.6
2019-03-19T03:27:36.002Z,-0.6
2019-03-19T03:28:26.888Z,-0.7
2019-03-19T03:29:17.839Z,-0.8
2019-03-19T03:30:08.755Z,-0.8
2019-03-19T03:30:59.643Z,-0.8
2019-03-19T03:31:50.541Z,-0.8
2019-03-19T03:32:41.439Z,-0.8
2019-03-19T03:33:32.355Z,-0.9
2019-03-19T03:34:23.241Z,-0.9
2019-03-19T03:35:14.180Z,-0.8
2019-03-19T03:36:05.084Z,-0.8
2019-03-19T03:36:55.958Z,-0.8
2019-03-19T03:37:46.831Z,-0.9
2019-03-19T03:38:37.712Z,-0.9
2019-03-19T03:39:28.580Z,-0.9
2019-03-19T03:40:19.475Z,-0.9
2019-03-19T03:41:10.420Z,-0.9
2019-03-19T03:42:01.315Z,-0.9
2019-03-19T03:42:52.193Z,-0.9
2019-03-19T03:43:43.069Z,-1.1
2019-03-19T03:44:33.942Z,-1.1
2019-03-19T03:45:24.851Z,-1
2019-03-19T03:46:15.724Z,-1.1
2019-03-19T03:47:06.595Z,-1.1
2019-03-19T03:47:57.465Z,-1.1
2019-03-19T03:48:48.340Z,-1.1
2019-03-19T03:49:39.216Z,-1.1
2019-03-19T03:50:30.119Z,-1
2019-03-19T03:51:20.985Z,-1
2019-03-19T03:52:11.851Z,-0.9
2019-03-19T03:53:02.733Z,-1
2019-03-19T03:53:53.608Z,-1
2019-03-19T03:54:44.475Z,-0.9
2019-03-19T03:55:35.384Z,-1
2019-03-19T03:56:26.258Z,-0.9
2019-03-19T03:57:17.141Z,-0.9
2019-03-19T03:58:08.015Z,-1
2019-03-19T03:59:00.711Z,-0.9
2019-03-19T03:59:52.111Z,-0.8
2019-03-19T04:00:43.006Z,-0.8
2019-03-19T04:01:33.885Z,-0.9
2019-03-19T04:02:24.775Z,-0.9
2019-03-19T04:03:15.646Z,-0.9
2019-03-19T04:04:06.521Z,-0.8
2019-03-19T04:04:57.390Z,-0.7
2019-03-19T04:05:48.304Z,-0.8
2019-03-19T04:06:39.178Z,-0.9
2019-03-19T04:07:30.054Z,-1.1
2019-03-19T04:08:20.942Z,-1.1
2019-03-19T04:09:11.817Z,-1.1
2019-03-19T04:10:02.692Z,-1.1
2019-03-19T04:10:53.591Z,-1.1
2019-03-19T04:11:44.463Z,-0.9
2019-03-19T04:12:35.334Z,-0.9
2019-03-19T04:13:26.206Z,-0.9
2019-03-19T04:14:17.077Z,-0.9
2019-03-19T04:15:07.945Z,-0.8
2019-03-19T04:15:58.845Z,-0.8
2019-03-19T04:16:49.719Z,-0.9
2019-03-19T04:17:40.599Z,-0.9
2019-03-19T04:18:31.473Z,-0.9
2019-03-19T04:19:22.343Z,-0.8
2019-03-19T04:20:13.212Z,-0.8
2019-03-19T04:21:04.114Z,-0.8
2019-03-19T04:21:54.983Z,-0.8
2019-03-19T04:22:45.858Z,-0.9
2019-03-19T04:23:36.746Z,-0.9
2019-03-19T04:24:27.622Z,-1.1
2019-03-19T04:25:18.493Z,-1.1
2019-03-19T04:26:09.398Z,-1.3
2019-03-19T04:27:00.261Z,-1.4
2019-03-19T04:27:51.133Z,-1.6
2019-03-19T04:28:42.003Z,-1.6
2019-03-19T04:29:32.876Z,-1.5
2019-03-19T04:30:23.748Z,-1.6
2019-03-19T04:31:14.664Z,-1.4
2019-03-19T04:32:05.538Z,-1.3
2019-03-19T04:32:56.417Z,-1.3
2019-03-19T04:33:47.292Z,-1.3
2019-03-19T04:34:38.158Z,-1.3
2019-03-19T04:35:29.024Z,-1.4
2019-03-19T04:36:19.926Z,-1.4
2019-03-19T04:37:10.797Z,-1.3
2019-03-19T04:38:01.670Z,-1.3
2019-03-19T04:38:52.544Z,-1.3
2019-03-19T04:39:43.431Z,-1.3
2019-03-19T04:40:34.300Z,-1.2
2019-03-19T04:41:25.225Z,-1.3
2019-03-19T04:42:16.095Z,-1.3
2019-03-19T04:43:06.968Z,-1.3
2019-03-19T04:43:57.846Z,-1.3
2019-03-19T04:44:48.714Z,-1.3
2019-03-19T04:45:39.582Z,-1.2
2019-03-19T04:46:30.449Z,-1.1
2019-03-19T04:47:21.350Z,-1.2
2019-03-19T04:48:12.219Z,-1.3
2019-03-19T04:49:03.087Z,-1.3
2019-03-19T04:49:53.959Z,-1.3
2019-03-19T04:50:44.832Z,-1.3
2019-03-19T04:51:35.698Z,-1.1
2019-03-19T04:52:26.598Z,-1.1
2019-03-19T04:53:17.552Z,-1.1
2019-03-19T04:54:08.438Z,-1.2
2019-03-19T04:54:59.312Z,-1.3
2019-03-19T04:55:50.192Z,-1.1
2019-03-19T04:56:41.084Z,-1.3
2019-03-19T04:57:31.980Z,-1.2
2019-03-19T04:58:22.844Z,-1.3
2019-03-19T04:59:13.736Z,-1.3
2019-03-19T05:00:04.621Z,-1.3
2019-03-19T05:00:55.509Z,-1.3
2019-03-19T05:01:46.387Z,-1.2
2019-03-19T05:02:37.291Z,-1.3
2019-03-19T05:03:28.160Z,-1.3
2019-03-19T05:04:19.024Z,-1.3
2019-03-19T05:05:09.969Z,-1.3
2019-03-19T05:06:00.900Z,-1.4
2019-03-19T05:06:51.769Z,-1.4
2019-03-19T05:07:42.688Z,-1.5
2019-03-19T05:08:33.590Z,-1.4
2019-03-19T05:09:24.465Z,-1.3
2019-03-19T05:10:15.362Z,-1.2
2019-03-19T05:11:06.254Z,-1.3
2019-03-19T05:11:57.162Z,-1.2
2019-03-19T05:12:48.167Z,-1.3
2019-03-19T05:13:39.046Z,-1.3
2019-03-19T05:14:29.978Z,-1.2
2019-03-19T05:15:20.850Z,-1.1
2019-03-19T05:16:11.721Z,-1.1
2019-03-19T05:17:02.587Z,-1.1
2019-03-19T05:17:53.486Z,-1.1
2019-03-19T05:18:44.356Z,-1.1
2019-03-19T05:19:35.222Z,-1.3
2019-03-19T05:20:26.096Z,-1.1
2019-03-19T05:21:16.964Z,-1.1
2019-03-19T05:22:07.837Z,-1.2
2019-03-19T05:22:58.743Z,-1.3
2019-03-19T05:23:49.612Z,-1.3
2019-03-19T05:24:40.478Z,-1.3
2019-03-19T05:25:31.354Z,-1.1
2019-03-19T05:26:22.228Z,-1.1
2019-03-19T05:27:14.037Z,-1.1
2019-03-19T05:28:05.049Z,-1.1
2019-03-19T05:28:55.918Z,-1.1
2019-03-19T05:29:46.786Z,-1.1
2019-03-19T05:30:37.667Z,-1.1
2019-03-19T05:31:28.537Z,-1.3
2019-03-19T05:32:19.408Z,-1.3
2019-03-19T05:33:10.305Z,-1.2
2019-03-19T05:34:01.173Z,-1.1
2019-03-19T05:34:52.043Z,-1.2
2019-03-19T05:35:42.911Z,-1.3
2019-03-19T05:36:33.780Z,-1.4
2019-03-19T05:37:24.648Z,-1.4
2019-03-19T05:38:15.557Z,-1.3
2019-03-19T05:39:06.428Z,-1.2
2019-03-19T05:39:57.299Z,-1.1
2019-03-19T05:40:48.169Z,-1.1
2019-03-19T05:41:39.041Z,-1.1
2019-03-19T05:42:29.940Z,-1.1
2019-03-19T05:43:20.845Z,-1.2
2019-03-19T05:44:11.714Z,-1
2019-03-19T05:45:02.585Z,-1
2019-03-19T05:45:53.455Z,-0.9
2019-03-19T05:46:44.319Z,-1
2019-03-19T05:47:37.386Z,-1
2019-03-19T05:48:29.191Z,-1
2019-03-19T05:49:20.056Z,-1
2019-03-19T05:50:10.933Z,-1
2019-03-19T05:51:01.806Z,-0.9
2019-03-19T05:51:52.669Z,-0.8
2019-03-19T05:52:43.541Z,-0.9
2019-03-19T05:53:34.446Z,-0.9
2019-03-19T05:54:25.320Z,-0.9
2019-03-19T05:55:16.189Z,-0.9
2019-03-19T05:56:07.072Z,-0.9
2019-03-19T05:56:57.949Z,-0.8
2019-03-19T05:57:50.315Z,-0.8
2019-03-19T05:58:41.418Z,-0.8
2019-03-19T05:59:32.284Z,-0.7
2019-03-19T06:00:23.154Z,-0.6
2019-03-19T06:01:14.022Z,-0.7
2019-03-19T06:02:04.895Z,-0.7
2019-03-19T06:02:55.771Z,-0.6
2019-03-19T06:03:46.701Z,-0.6
2019-03-19T06:04:37.578Z,-0.5
2019-03-19T06:05:28.451Z,-0.6
2019-03-19T06:06:19.318Z,-0.6
2019-03-19T06:07:10.184Z,-0.6
2019-03-19T06:08:01.055Z,-0.5
2019-03-19T06:08:51.956Z,-0.4
2019-03-19T06:09:42.826Z,-0.4
2019-03-19T06:10:33.693Z,-0.3
2019-03-19T06:11:24.561Z,-0.3
2019-03-19T06:12:15.428Z,-0.4
2019-03-19T06:13:06.323Z,-0.4
2019-03-19T06:13:57.308Z,-0.4
2019-03-19T06:14:48.196Z,-0.3
2019-03-19T06:15:39.063Z,-0.3
2019-03-19T06:16:30.008Z,-0.3
2019-03-19T06:17:20.930Z,-0.3
2019-03-19T06:18:11.799Z,-0.3
2019-03-19T06:19:02.720Z,-0.3
2019-03-19T06:19:53.625Z,-0.3
2019-03-19T06:20:44.503Z,-0.3
2019-03-19T06:21:35.382Z,-0.3
2019-03-19T06:22:26.255Z,-0.2
2019-03-19T06:23:17.171Z,-0.1
2019-03-19T06:24:08.039Z,-0.1
2019-03-19T06:24:58.932Z,-0.1
2019-03-19T06:25:49.801Z,-0.1
2019-03-19T06:26:40.677Z,-0.1
2019-03-19T06:27:31.547Z,0
2019-03-19T06:28:22.417Z,0.1
2019-03-19T06:29:13.283Z,0.1
2019-03-19T06:30:04.179Z,0.1
2019-03-19T06:30:55.054Z,0.1
2019-03-19T06:31:45.924Z,0.1
2019-03-19T06:32:36.791Z,0.2
2019-03-19T06:33:27.664Z,0.2
2019-03-19T06:34:18.533Z,0.2
2019-03-19T06:35:09.441Z,0.3
2019-03-19T06:36:00.316Z,0.3
2019-03-19T06:36:51.191Z,0.4
2019-03-19T06:37:42.060Z,0.4
2019-03-19T06:38:32.935Z,0.4
2019-03-19T06:39:23.799Z,0.4
2019-03-19T06:40:14.703Z,0.4
2019-03-19T06:41:05.622Z,0.4
2019-03-19T06:41:56.503Z,0.4
2019-03-19T06:42:47.368Z,0.4
2019-03-19T06:43:38.246Z,0.4
2019-03-19T06:44:29.114Z,0.4
2019-03-19T06:45:21.706Z,0.4
2019-03-19T06:46:18.740Z,0.6
2019-03-19T06:47:09.612Z,0.5
2019-03-19T06:48:00.492Z,0.6
2019-03-19T06:48:51.365Z,0.6
2019-03-19T06:49:42.233Z,0.7
2019-03-19T06:50:33.139Z,0.7
2019-03-19T06:51:24.018Z,0.8
2019-03-19T06:52:14.886Z,0.8
2019-03-19T06:53:05.757Z,0.8
2019-03-19T06:53:56.623Z,0.8
2019-03-19T06:54:47.494Z,0.8
2019-03-19T06:55:38.411Z,0.9
2019-03-19T06:56:29.282Z,0.9
2019-03-19T06:57:20.155Z,1
2019-03-19T06:58:11.449Z,1.1
2019-03-19T06:59:02.391Z,1.1
2019-03-19T06:59:53.265Z,1.1
2019-03-19T07:00:44.165Z,1.1
2019-03-19T07:01:35.039Z,1.1
2019-03-19T07:02:25.908Z,1.1
2019-03-19T07:03:16.776Z,1.2
2019-03-19T07:04:07.639Z,1.2
2019-03-19T07:04:58.508Z,1.2
2019-03-19T07:05:49.432Z,1.3
2019-03-19T07:06:40.309Z,1.3
2019-03-19T07:07:31.181Z,1.3
2019-03-19T07:08:22.058Z,1.3
2019-03-19T07:09:12.934Z,1.4
2019-03-19T07:10:03.804Z,1.4
2019-03-19T07:10:54.709Z,1.3
2019-03-19T07:11:45.579Z,1.4
2019-03-19T07:12:36.452Z,1.5
2019-03-19T07:13:27.326Z,1.6
2019-03-19T07:14:18.196Z,1.8
2019-03-19T07:15:09.074Z,1.9
2019-03-19T07:16:00.030Z,1.9
2019-03-19T07:16:50.903Z,2.1
2019-03-19T07:17:41.779Z,2.1
2019-03-19T07:18:33.786Z,2.1
2019-03-19T07:19:24.856Z,2.2
2019-03-19T07:20:15.726Z,2.3
2019-03-19T07:21:06.626Z,2.5
2019-03-19T07:21:57.497Z,2.5
2019-03-19T07:22:48.361Z,2.8
2019-03-19T07:23:39.233Z,3.6
2019-03-19T07:24:30.102Z,4.1
2019-03-19T07:25:20.973Z,4.1
2019-03-19T07:26:11.872Z,4.1
2019-03-19T07:27:02.739Z,4.1
2019-03-19T07:27:53.615Z,4.1
2019-03-19T07:28:44.492Z,4.1
2019-03-19T07:29:35.364Z,4.1
2019-03-19T07:30:26.228Z,4.1
2019-03-19T07:31:17.126Z,4.1
2019-03-19T07:32:08.007Z,4.1
2019-03-19T07:32:58.879Z,4.1
2019-03-19T07:33:49.747Z,4.1
2019-03-19T07:34:40.621Z,4.1
2019-03-19T07:35:31.497Z,4.1
2019-03-19T07:36:22.405Z,4.1
2019-03-19T07:37:13.279Z,4.1
2019-03-19T07:38:04.150Z,4.1
2019-03-19T07:38:55.020Z,4.2
2019-03-19T07:39:45.891Z,4.2
2019-03-19T07:40:36.758Z,4.2
2019-03-19T07:41:27.651Z,4.2
2019-03-19T07:42:18.527Z,4.2
2019-03-19T07:43:09.455Z,4.2
2019-03-19T07:44:00.323Z,4.2
2019-03-19T07:44:51.190Z,4.2
2019-03-19T07:45:42.064Z,4.2
2019-03-19T07:46:32.961Z,4.2
2019-03-19T07:47:23.827Z,4.2
2019-03-19T07:48:14.695Z,4.2
2019-03-19T07:49:05.568Z,4.2
2019-03-19T07:49:56.441Z,4.2
2019-03-19T07:50:47.309Z,4.2
2019-03-19T07:51:38.203Z,4.2
2019-03-19T07:52:29.074Z,4.3
2019-03-19T07:53:19.942Z,4.3
2019-03-19T07:54:10.809Z,4.3
2019-03-19T07:55:01.681Z,4.3
2019-03-19T07:55:53.525Z,4.3
2019-03-19T07:56:44.579Z,4.3
2019-03-19T07:57:35.454Z,4.3
2019-03-19T07:58:32.957Z,4.4
2019-03-19T07:59:22.137Z,4.4
2019-03-19T08:00:13.009Z,4.4
2019-03-19T08:01:03.874Z,4.4
2019-03-19T08:01:54.777Z,4.4
2019-03-19T08:02:45.644Z,4.4
2019-03-19T08:03:36.510Z,4.4
2019-03-19T08:04:27.380Z,4.4
2019-03-19T08:05:18.248Z,4.4
2019-03-19T08:06:09.119Z,4.4
2019-03-19T08:07:00.020Z,4.4
2019-03-19T08:07:50.890Z,4.4
2019-03-19T08:08:41.762Z,4.4
2019-03-19T08:09:32.704Z,4.4
2019-03-19T08:10:23.592Z,4.5
2019-03-19T08:11:16.602Z,4.5
2019-03-19T08:12:07.703Z,4.5
2019-03-19T08:12:58.578Z,4.5
2019-03-19T08:13:49.452Z,4.5
2019-03-19T08:14:40.324Z,4.5
2019-03-19T08:15:31.193Z,4.5
2019-03-19T08:16:27.256Z,4.6
2019-03-19T08:17:17.901Z,4.6
2019-03-19T08:18:08.773Z,4.6
2019-03-19T08:18:59.645Z,4.6
2019-03-19T08:19:50.512Z,4.6
2019-03-19T08:20:41.380Z,4.6
2019-03-19T08:21:32.264Z,4.6
2019-03-19T08:22:23.162Z,4.6
2019-03-19T08:23:14.031Z,4.6
2019-03-19T08:24:04.897Z,4.6
2019-03-19T08:24:55.764Z,4.6
2019-03-19T08:25:46.631Z,4.6
2019-03-19T08:26:37.501Z,4.6
2019-03-19T08:27:28.409Z,4.6
2019-03-19T08:28:19.277Z,4.6
2019-03-19T08:29:10.143Z,4.6
2019-03-19T08:30:01.020Z,4.6
2019-03-19T08:30:51.894Z,4.7
2019-03-19T08:31:42.764Z,4.7
2019-03-19T08:32:33.664Z,4.7
2019-03-19T08:33:24.533Z,4.7
2019-03-19T08:34:15.414Z,4.7
2019-03-19T08:35:06.279Z,4.7
2019-03-19T08:35:57.143Z,4.7
2019-03-19T08:36:48.010Z,4.7
2019-03-19T08:37:38.905Z,4.7
2019-03-19T08:38:29.776Z,4.7
2019-03-19T08:39:20.729Z,4.7
2019-03-19T08:40:11.757Z,4.8
2019-03-19T08:41:02.619Z,4.8
2019-03-19T08:41:53.516Z,4.8
2019-03-19T08:42:44.387Z,4.8
2019-03-19T08:43:35.255Z,4.8
2019-03-19T08:44:27.799Z,4.8
2019-03-19T08:45:18.957Z,4.8
2019-03-19T08:46:09.829Z,4.8
2019-03-19T08:47:00.728Z,4.9
2019-03-19T08:47:51.602Z,4.9
2019-03-19T08:48:42.465Z,4.9
2019-03-19T08:49:33.339Z,4.9
2019-03-19T08:50:24.201Z,4.9
2019-03-19T08:51:15.067Z,4.9
2019-03-19T08:52:05.977Z,4.9
2019-03-19T08:52:56.850Z,4.9
2019-03-19T08:53:47.716Z,4.9
2019-03-19T08:54:38.591Z,4.9
2019-03-19T08:55:29.578Z,4.9
2019-03-19T08:56:20.487Z,4.9
2019-03-19T08:57:11.430Z,4.9
2019-03-19T08:58:02.387Z,5
2019-03-19T08:58:53.291Z,5
2019-03-19T08:59:44.218Z,5
2019-03-19T09:00:35.166Z,5
2019-03-19T09:01:26.087Z,5
2019-03-19T09:02:17.007Z,5
2019-03-19T09:03:07.967Z,5.1
2019-03-19T09:03:58.878Z,5.1
2019-03-19T09:04:49.780Z,5.1
2019-03-19T09:05:40.678Z,5.1
2019-03-19T09:06:31.579Z,5.1
2019-03-19T09:07:22.499Z,5.1
2019-03-19T09:08:13.465Z,5.1
2019-03-19T09:09:04.344Z,5.1
2019-03-19T09:09:55.218Z,5.1
2019-03-19T09:10:46.083Z,5.1
2019-03-19T09:11:36.946Z,5.1
2019-03-19T09:12:27.846Z,5.1
2019-03-19T09:13:18.722Z,5.1
2019-03-19T09:14:09.589Z,5.1
2019-03-19T09:15:00.492Z,5.1
2019-03-19T09:15:51.387Z,5.2
2019-03-19T09:16:42.258Z,5.2
2019-03-19T09:17:33.157Z,5.2
2019-03-19T09:18:24.025Z,5.2
2019-03-19T09:19:14.892Z,5.2
2019-03-19T09:20:05.764Z,5.2
2019-03-19T09:20:56.637Z,5.2
2019-03-19T09:21:47.515Z,5.2
2019-03-19T09:22:38.417Z,5.2
2019-03-19T09:23:29.282Z,5.2
2019-03-19T09:24:20.154Z,5.2
2019-03-19T09:25:11.024Z,5.2
2019-03-19T09:26:01.893Z,5.3
2019-03-19T09:26:52.760Z,5.3
2019-03-19T09:27:43.655Z,5.3
2019-03-19T09:28:34.529Z,5.3
2019-03-19T09:29:25.551Z,5.3
2019-03-19T09:30:16.427Z,5.3
2019-03-19T09:31:07.301Z,5.4
2019-03-19T09:31:58.170Z,5.4
2019-03-19T09:32:49.064Z,5.4
2019-03-19T09:33:39.938Z,5.4
2019-03-19T09:34:30.804Z,5.4
2019-03-19T09:35:21.672Z,5.4
2019-03-19T09:36:12.652Z,5.4
2019-03-19T09:37:03.637Z,5.4
2019-03-19T09:37:58.575Z,5.4
2019-03-19T09:38:50.089Z,5.4
2019-03-19T09:39:41.013Z,5.4
2019-03-19T09:40:31.880Z,5.5
2019-03-19T09:41:22.751Z,5.5
2019-03-19T09:42:13.618Z,5.5
2019-03-19T09:43:04.522Z,5.5
2019-03-19T09:43:55.397Z,5.5
2019-03-19T09:44:46.261Z,5.5
2019-03-19T09:45:37.132Z,5.5
2019-03-19T09:46:28.016Z,5.6
2019-03-19T09:47:18.882Z,5.6
2019-03-19T09:48:09.786Z,5.6
2019-03-19T09:49:00.652Z,5.6
2019-03-19T09:49:51.525Z,5.6
2019-03-19T09:50:42.398Z,5.6
2019-03-19T09:51:33.272Z,5.6
2019-03-19T09:52:24.150Z,5.6
2019-03-19T09:53:15.047Z,5.6
2019-03-19T09:54:05.921Z,5.6
2019-03-19T09:54:56.792Z,5.6
2019-03-19T09:55:47.661Z,5.7
2019-03-19T09:56:38.536Z,5.7
2019-03-19T09:57:29.412Z,5.7
2019-03-19T09:58:20.311Z,5.7
2019-03-19T09:59:11.182Z,5.7
2019-03-19T10:00:02.047Z,5.7
2019-03-19T10:00:52.917Z,5.7
2019-03-19T10:01:43.780Z,5.7
2019-03-19T10:02:34.656Z,5.7
2019-03-19T10:03:25.551Z,5.7
2019-03-19T10:04:16.424Z,5.7
2019-03-19T10:05:07.289Z,5.8
2019-03-19T10:05:58.157Z,5.8
2019-03-19T10:06:49.024Z,5.8
2019-03-19T10:07:39.914Z,5.8
2019-03-19T10:08:30.810Z,5.8
2019-03-19T10:09:21.679Z,5.9
2019-03-19T10:10:12.552Z,5.9
2019-03-19T10:11:03.423Z,5.9
2019-03-19T10:11:54.296Z,5.9
2019-03-19T10:12:45.167Z,5.9
2019-03-19T10:13:36.068Z,5.9
2019-03-19T10:14:26.950Z,5.9
2019-03-19T10:15:17.817Z,6
2019-03-19T10:16:08.693Z,6
2019-03-19T10:16:59.560Z,6
2019-03-19T10:17:50.439Z,6
2019-03-19T10:18:41.344Z,6
2019-03-19T10:19:32.215Z,6.1
2019-03-19T10:20:23.083Z,6.1
2019-03-19T10:21:13.947Z,6.1
2019-03-19T10:22:04.813Z,6.1
2019-03-19T10:22:55.673Z,6.1
2019-03-19T10:23:51.567Z,6.1
2019-03-19T10:24:42.436Z,6.1
2019-03-19T10:25:33.303Z,6.1
2019-03-19T10:26:24.177Z,6.2
2019-03-19T10:27:15.045Z,6.2
2019-03-19T10:28:05.916Z,6.2
2019-03-19T10:28:56.818Z,6.2
2019-03-19T10:29:47.686Z,6.2
2019-03-19T10:30:38.552Z,6.2
2019-03-19T10:31:29.411Z,6.2
2019-03-19T10:32:20.284Z,6.2
2019-03-19T10:33:11.155Z,6.2
2019-03-19T10:34:02.050Z,6.2
2019-03-19T10:34:52.915Z,6.2
2019-03-19T10:35:43.782Z,6.2
2019-03-19T10:36:34.648Z,6.2
2019-03-19T10:37:25.513Z,6.3
2019-03-19T10:38:16.375Z,6.3
2019-03-19T10:39:09.001Z,6.3
2019-03-19T10:39:59.989Z,6.3
2019-03-19T10:40:50.854Z,6.3
2019-03-19T10:41:41.719Z,6.4
2019-03-19T10:42:32.581Z,6.4
2019-03-19T10:43:23.446Z,6.4
2019-03-19T10:44:14.340Z,6.4
2019-03-19T10:45:05.206Z,6.4
2019-03-19T10:45:56.080Z,6.4
2019-03-19T10:46:46.952Z,6.4
2019-03-19T10:47:37.821Z,6.4
2019-03-19T10:48:28.687Z,6.4
2019-03-19T10:49:19.584Z,6.4
2019-03-19T10:50:10.454Z,6.4
2019-03-19T10:51:01.324Z,6.4
2019-03-19T10:51:52.188Z,6.4
2019-03-19T10:52:43.061Z,6.5
2019-03-19T10:53:33.937Z,6.5
2019-03-19T10:54:24.831Z,6.5
2019-03-19T10:55:15.694Z,6.5
2019-03-19T10:56:06.559Z,6.5
2019-03-19T10:56:57.424Z,6.6
2019-03-19T10:57:48.289Z,6.6
2019-03-19T10:58:39.158Z,6.6
2019-03-19T10:59:30.055Z,6.6
2019-03-19T11:00:20.922Z,6.6
2019-03-19T11:01:11.785Z,6.6
2019-03-19T11:02:02.658Z,6.6
2019-03-19T11:02:53.527Z,6.6
2019-03-19T11:03:44.393Z,6.6
2019-03-19T11:04:35.287Z,6.6
2019-03-19T11:05:26.151Z,6.5
2019-03-19T11:06:17.024Z,6.5
2019-03-19T11:07:07.893Z,6.4
2019-03-19T11:07:58.762Z,6.4
2019-03-19T11:08:49.632Z,6.4
2019-03-19T11:09:40.524Z,6.5
2019-03-19T11:10:31.391Z,6.5
2019-03-19T11:11:22.258Z,6.5
2019-03-19T11:12:13.125Z,6.5
2019-03-19T11:13:03.993Z,6.6
2019-03-19T11:13:54.859Z,6.6
2019-03-19T11:14:45.760Z,6.6
2019-03-19T11:15:36.631Z,6.6
2019-03-19T11:16:27.500Z,6.6
2019-03-19T11:17:18.369Z,6.6
2019-03-19T11:18:09.235Z,6.6
2019-03-19T11:19:00.109Z,6.6
2019-03-19T11:19:51.008Z,6.7
2019-03-19T11:20:41.879Z,6.7
2019-03-19T11:21:32.750Z,6.7
2019-03-19T11:22:23.619Z,6.7
2019-03-19T11:23:14.491Z,6.7
2019-03-19T11:24:05.359Z,6.7
2019-03-19T11:24:56.262Z,6.7
2019-03-19T11:25:54.280Z,6.7
2019-03-19T11:26:42.934Z,6.7
2019-03-19T11:27:33.804Z,6.7
2019-03-19T11:28:24.666Z,6.7
2019-03-19T11:29:15.527Z,6.7
2019-03-19T11:30:06.695Z,6.7
2019-03-19T11:30:57.600Z,6.7